Archival Weather

Granbury Rgnl

Granbury, Texas (KGDJ)

Report from: Monday, January 29, 2024 3:35 AM UTC
Current time: Tuesday, June 18, 2024 1:17 PM UTC

Current weather – Weather history – Daily summaries
Weather forecast

Temperature6.6°C (43.9°F)
Dew point2.3°C (36.1°F)
Winds Calm
Visibility10 mi. (16.1 km)
Clouds Sky clear
Altimeter30.36 in.Hg (1028 mB)
Relative humidity74 %
Density altitude-1,407 ft. (-429 m)
Remarks Fully automated report
Automated weather observing station with precipitation discriminator
Flight conditions Visual Meteorological Conditions
Raw dataKGDJ 290335Z AUTO 00000KT 10SM CLR 07/02 A3036 RMK AO2 T00660023
An error has occurred. This application may no longer respond until reloaded. Reload 🗙